createdAt,value
2018-04-06T00:00:13.746Z,92.10
2018-04-06T00:02:41.069Z,92.10
2018-04-06T00:05:07.648Z,92.10
2018-04-06T00:07:34.249Z,92.20
2018-04-06T00:10:01.570Z,92.40
2018-04-06T00:12:28.119Z,92.40
2018-04-06T00:14:54.647Z,92.60
2018-04-06T00:17:21.230Z,92.70
2018-04-06T00:19:48.530Z,92.80
2018-04-06T00:22:15.119Z,92.70
2018-04-06T00:24:42.402Z,92.80
2018-04-06T00:27:08.998Z,92.80
2018-04-06T00:29:35.576Z,92.50
2018-04-06T00:32:02.138Z,92.40
2018-04-06T00:34:29.494Z,92.40
2018-04-06T00:36:56.067Z,92.30
2018-04-06T00:39:23.346Z,92.60
2018-04-06T00:41:49.951Z,92.60
2018-04-06T00:44:16.523Z,92.80
2018-04-06T00:46:43.191Z,92.80
2018-04-06T00:49:09.745Z,93.10
2018-04-06T00:51:36.305Z,92.90
2018-04-06T00:54:02.920Z,93.10
2018-04-06T00:56:29.556Z,92.80
2018-04-06T00:58:56.117Z,93.40
2018-04-06T01:01:22.659Z,93.80
2018-04-06T01:03:50.064Z,93.90
2018-04-06T01:06:16.685Z,93.80
2018-04-06T01:08:43.107Z,93.30
2018-04-06T01:11:09.467Z,93.30
2018-04-06T01:13:36.597Z,93.50
2018-04-06T01:16:03.012Z,93.10
2018-04-06T01:18:29.430Z,93.30
2018-04-06T01:20:55.777Z,93.70
2018-04-06T01:23:22.177Z,93.80
2018-04-06T01:25:48.538Z,93.70
2018-04-06T01:28:14.904Z,93.60
2018-04-06T01:30:41.249Z,93.70
2018-04-06T01:33:08.352Z,94.50
2018-04-06T01:35:35.733Z,94.50
2018-04-06T01:38:02.085Z,94.50
2018-04-06T01:40:29.220Z,94.10
2018-04-06T01:42:56.351Z,94.10
2018-04-06T01:45:22.717Z,94.10
2018-04-06T01:47:49.836Z,94.00
2018-04-06T01:50:16.246Z,94.00
2018-04-06T01:52:42.597Z,94.30
2018-04-06T01:55:08.975Z,94.40
2018-04-06T01:57:35.339Z,94.30
2018-04-06T02:00:01.748Z,94.60
2018-04-06T02:02:28.089Z,94.90
2018-04-06T02:04:54.442Z,95.00
2018-04-06T02:07:20.841Z,95.10
2018-04-06T02:09:47.250Z,94.70
2018-04-06T02:12:14.446Z,95.30
2018-04-06T02:14:40.838Z,95.30
2018-04-06T02:17:07.951Z,95.60
2018-04-06T02:19:34.341Z,95.50
2018-04-06T02:22:00.726Z,95.70
2018-04-06T02:24:27.118Z,95.50
2018-04-06T02:26:53.492Z,95.40
2018-04-06T02:29:19.898Z,96.20
2018-04-06T02:31:46.285Z,97.20
2018-04-06T02:34:12.658Z,97.40
2018-04-06T02:36:39.030Z,97.30
2018-04-06T02:39:05.398Z,97.20
2018-04-06T02:41:31.804Z,96.70
2018-04-06T02:43:58.173Z,96.70
2018-04-06T02:46:25.261Z,96.80
2018-04-06T02:48:51.622Z,96.80
2018-04-06T02:51:18.752Z,96.90
2018-04-06T02:53:45.114Z,96.90
2018-04-06T02:56:11.473Z,97.10
2018-04-06T02:58:37.859Z,97.50
2018-04-06T03:01:04.235Z,96.90
2018-04-06T03:03:31.371Z,96.70
2018-04-06T03:05:59.508Z,96.90
2018-04-06T03:08:25.861Z,96.80
2018-04-06T03:10:52.245Z,97.10
2018-04-06T03:13:18.623Z,97.20
2018-04-06T03:15:45.756Z,97.20
2018-04-06T03:18:12.150Z,97.20
2018-04-06T03:20:38.558Z,97.30
2018-04-06T03:23:05.694Z,97.50
2018-04-06T03:25:32.061Z,97.40
2018-04-06T03:27:58.447Z,97.30
2018-04-06T03:30:24.837Z,97.20
2018-04-06T03:32:51.225Z,97.10
2018-04-06T03:35:17.594Z,97.40
2018-04-06T03:37:44.694Z,97.70
2018-04-06T03:40:11.058Z,97.70
2018-04-06T03:42:37.395Z,97.50
2018-04-06T03:45:04.546Z,97.10
2018-04-06T03:47:31.681Z,97.40
2018-04-06T03:49:58.049Z,97.40
2018-04-06T03:52:24.405Z,97.50
2018-04-06T03:54:50.751Z,97.60
2018-04-06T03:57:17.117Z,97.60
2018-04-06T03:59:43.475Z,97.70
2018-04-06T04:02:09.848Z,97.80
2018-04-06T04:04:36.280Z,97.90
2018-04-06T04:07:02.710Z,98.20
2018-04-06T04:09:29.090Z,98.20
2018-04-06T04:11:55.522Z,98.30
2018-04-06T04:14:21.905Z,98.40
2018-04-06T04:16:48.273Z,98.90
2018-04-06T04:19:15.389Z,99.10
2018-04-06T04:21:41.757Z,98.80
2018-04-06T04:24:08.898Z,99.10
2018-04-06T04:26:35.297Z,99.10
2018-04-06T04:29:01.674Z,99.00
2018-04-06T04:31:28.045Z,99.20
2018-04-06T04:33:54.437Z,99.30
2018-04-06T04:36:20.806Z,99.10
2018-04-06T04:38:47.226Z,99.10
2018-04-06T04:41:14.336Z,98.90
2018-04-06T04:43:40.703Z,98.90
2018-04-06T04:46:07.850Z,99.10
2018-04-06T04:48:34.945Z,99.10
2018-04-06T04:51:01.316Z,99.10
2018-04-06T04:53:27.707Z,99.10
2018-04-06T04:55:54.058Z,99.00
2018-04-06T04:58:20.549Z,98.90
2018-04-06T05:00:46.922Z,98.90
2018-04-06T05:03:13.281Z,98.90
2018-04-06T05:05:39.670Z,98.90
2018-04-06T05:08:06.045Z,99.00
2018-04-06T05:10:33.249Z,99.10
2018-04-06T05:12:59.621Z,99.10
2018-04-06T05:15:26.742Z,99.20
2018-04-06T05:17:53.125Z,99.20
2018-04-06T05:20:19.497Z,99.20
2018-04-06T05:22:45.873Z,99.30
2018-04-06T05:25:12.235Z,99.40
2018-04-06T05:27:38.634Z,99.30
2018-04-06T05:30:05.044Z,99.40
2018-04-06T05:32:31.493Z,99.40
2018-04-06T05:34:58.106Z,99.50
2018-04-06T05:37:24.481Z,99.50
2018-04-06T05:39:50.849Z,99.40
2018-04-06T05:42:17.962Z,99.40
2018-04-06T05:44:44.300Z,99.40
2018-04-06T05:47:11.629Z,99.70
2018-04-06T05:49:37.985Z,99.50
2018-04-06T05:52:04.382Z,99.40
2018-04-06T05:54:30.744Z,99.40
2018-04-06T05:56:57.121Z,99.50
2018-04-06T05:59:23.536Z,99.40
2018-04-06T06:01:50.638Z,99.40
2018-04-06T06:04:17.021Z,99.40
2018-04-06T06:06:44.129Z,99.20
2018-04-06T06:09:10.476Z,99.10
2018-04-06T06:11:37.610Z,99.00
2018-04-06T06:14:04.793Z,98.90
2018-04-06T06:16:32.319Z,98.90
2018-04-06T06:18:58.742Z,98.90
2018-04-06T06:21:25.121Z,98.80
2018-04-06T06:23:52.245Z,98.60
2018-04-06T06:26:18.629Z,98.60
2018-04-06T06:28:45.011Z,98.50
2018-04-06T06:31:11.373Z,98.40
2018-04-06T06:33:41.641Z,97.90
2018-04-06T06:36:08.042Z,97.40
2018-04-06T06:38:35.180Z,97.10
2018-04-06T06:41:02.269Z,95.90
2018-04-06T06:43:28.653Z,95.90
2018-04-06T06:45:55.769Z,94.80
2018-04-06T06:48:22.167Z,94.80
2018-04-06T06:50:48.529Z,94.20
2018-04-06T06:53:14.901Z,93.30
2018-04-06T06:55:41.301Z,92.20
2018-04-06T06:58:07.674Z,91.70
2018-04-06T07:00:34.053Z,91.40
2018-04-06T07:03:00.450Z,91.50
2018-04-06T07:05:27.596Z,90.50
2018-04-06T07:07:54.009Z,90.50
2018-04-06T07:10:21.202Z,86.40
2018-04-06T07:12:47.556Z,86.30
2018-04-06T07:15:13.946Z,85.90
2018-04-06T07:17:40.338Z,82.00
2018-04-06T07:20:06.747Z,81.40
2018-04-06T07:22:33.351Z,78.10
2018-04-06T07:24:59.760Z,78.00
2018-04-06T07:27:26.126Z,78.70
2018-04-06T07:29:52.493Z,76.70
2018-04-06T07:32:18.836Z,74.20
2018-04-06T07:34:45.241Z,73.90
2018-04-06T07:37:11.594Z,70.70
2018-04-06T07:39:37.986Z,69.50
2018-04-06T07:42:05.085Z,70.60
2018-04-06T07:44:31.445Z,70.60
2018-04-06T07:46:57.826Z,71.00
2018-04-06T07:49:24.213Z,67.60
2018-04-06T07:51:50.582Z,68.70
2018-04-06T07:54:17.661Z,66.20
2018-04-06T07:56:44.058Z,66.20
2018-04-06T07:59:11.272Z,63.30
2018-04-06T08:01:38.424Z,60.70
2018-04-06T08:04:05.862Z,60.60
2018-04-06T08:06:32.262Z,61.50
2018-04-06T08:08:58.635Z,61.00
2018-04-06T08:11:25.004Z,69.20
2018-04-06T08:13:52.124Z,64.00
2018-04-06T08:16:18.509Z,64.00
2018-04-06T08:18:44.924Z,58.60
2018-04-06T08:21:11.356Z,57.20
2018-04-06T08:23:38.151Z,59.20
2018-04-06T08:26:04.557Z,59.00
2018-04-06T08:28:30.962Z,61.70
2018-04-06T08:30:58.117Z,57.60
2018-04-06T08:33:25.430Z,59.90
2018-04-06T08:35:51.837Z,59.90
2018-04-06T08:38:18.264Z,60.10
2018-04-06T08:40:44.656Z,56.60
2018-04-06T08:43:11.830Z,56.00
2018-04-06T08:45:38.949Z,56.70
2018-04-06T08:48:05.361Z,56.70
2018-04-06T08:50:31.941Z,57.70
2018-04-06T08:52:59.039Z,55.90
2018-04-06T08:55:25.433Z,56.00
2018-04-06T08:57:52.544Z,54.70
2018-04-06T09:00:18.888Z,54.60
2018-04-06T09:02:45.365Z,51.80
2018-04-06T09:05:11.881Z,51.80
2018-04-06T09:07:39.057Z,48.50
2018-04-06T09:10:05.529Z,48.40
2018-04-06T09:12:31.923Z,50.00
2018-04-06T09:14:58.291Z,50.20
2018-04-06T09:17:24.702Z,48.30
2018-04-06T09:19:51.102Z,50.30
2018-04-06T09:25:15.165Z,51.20
2018-04-06T09:27:42.618Z,50.00
2018-04-06T09:30:09.468Z,50.00
2018-04-06T09:32:36.097Z,48.60
2018-04-06T09:35:03.657Z,49.20
2018-04-06T09:37:31.024Z,47.30
2018-04-06T09:39:58.370Z,47.30
2018-04-06T09:42:25.112Z,47.30
2018-04-06T09:44:52.472Z,46.50
2018-04-06T09:47:20.026Z,43.70
2018-04-06T09:49:47.485Z,43.70
2018-04-06T09:52:15.045Z,42.60
2018-04-06T09:54:41.795Z,42.50
2018-04-06T09:57:09.348Z,45.80
2018-04-06T09:59:36.089Z,45.70
2018-04-06T10:02:09.693Z,45.10
2018-04-06T10:04:37.149Z,44.30
2018-04-06T10:07:03.993Z,44.20
2018-04-06T10:09:31.349Z,41.60
2018-04-06T10:11:58.910Z,41.90
2018-04-06T10:14:26.470Z,39.50
2018-04-06T10:16:53.316Z,39.50
2018-04-06T10:19:20.056Z,40.30
2018-04-06T10:21:47.720Z,40.00
2018-04-06T10:24:14.459Z,39.10
2018-04-06T10:26:41.200Z,39.20
2018-04-06T10:29:08.679Z,40.80
2018-04-06T10:31:35.402Z,40.80
2018-04-06T10:34:02.143Z,39.70
2018-04-06T10:36:28.889Z,43.70
2018-04-06T10:38:56.553Z,41.20
2018-04-06T10:41:23.295Z,40.60
2018-04-06T10:43:54.023Z,41.40
2018-04-06T10:46:20.769Z,38.90
2018-04-06T10:48:48.224Z,39.90
2018-04-06T10:51:14.963Z,39.80
2018-04-06T10:53:41.603Z,40.20
2018-04-06T10:56:09.063Z,39.80
2018-04-06T10:58:36.170Z,39.40
2018-04-06T11:01:02.955Z,39.10
2018-04-06T11:03:34.713Z,37.90
2018-04-06T11:06:01.458Z,37.60
2018-04-06T11:08:28.922Z,37.00
2018-04-06T11:10:55.757Z,37.00
2018-04-06T11:13:22.605Z,36.20
2018-04-06T11:15:49.340Z,39.00
2018-04-06T11:18:16.084Z,37.80
2018-04-06T11:20:43.643Z,39.30
2018-04-06T11:23:10.396Z,38.80
2018-04-06T11:25:37.229Z,39.20
2018-04-06T11:28:03.970Z,39.10
2018-04-06T11:30:31.431Z,36.30
2018-04-06T11:32:58.181Z,36.30
2018-04-06T11:35:25.731Z,35.50
2018-04-06T11:37:53.193Z,35.50
2018-04-06T11:40:20.036Z,35.50
2018-04-06T11:42:46.774Z,35.30
2018-04-06T11:45:14.231Z,36.10
2018-04-06T11:47:41.694Z,37.50
2018-04-06T11:50:08.537Z,37.50
2018-04-06T11:52:35.585Z,36.30
2018-04-06T11:55:02.325Z,37.90
2018-04-06T11:57:29.065Z,36.40
2018-04-06T11:59:55.807Z,34.40
2018-04-06T12:02:23.372Z,36.90
2018-04-06T12:04:50.109Z,36.90
2018-04-06T12:07:17.460Z,36.50
2018-04-06T12:09:45.025Z,36.10
2018-04-06T12:12:12.483Z,34.40
2018-04-06T12:14:39.226Z,34.40
2018-04-06T12:17:05.965Z,35.50
2018-04-06T12:19:33.425Z,35.50
2018-04-06T12:22:00.883Z,34.30
2018-04-06T12:24:28.443Z,34.20
2018-04-06T12:26:55.185Z,34.20
2018-04-06T12:29:21.925Z,35.10
2018-04-06T12:31:49.488Z,33.30
2018-04-06T12:34:17.048Z,33.50
2018-04-06T12:36:43.899Z,33.50
2018-04-06T12:39:11.449Z,36.60
2018-04-06T12:41:38.193Z,36.60
2018-04-06T12:44:05.651Z,35.60
2018-04-06T12:49:33.667Z,34.40
2018-04-06T12:52:00.031Z,32.90
2018-04-06T12:54:28.323Z,35.30
2018-04-06T12:56:56.256Z,33.10
2018-04-06T12:59:22.619Z,33.10
2018-04-06T13:01:49.743Z,35.60
2018-04-06T13:04:16.126Z,35.50
2018-04-06T13:06:42.563Z,36.00
2018-04-06T13:09:09.077Z,35.10
2018-04-06T13:11:35.540Z,34.50
2018-04-06T13:14:01.943Z,35.40
2018-04-06T13:16:28.330Z,37.50
2018-04-06T13:18:55.490Z,34.80
2018-04-06T13:21:22.696Z,35.50
2018-04-06T13:23:49.119Z,35.50
2018-04-06T13:26:15.521Z,35.70
2018-04-06T13:28:41.957Z,35.20
2018-04-06T13:31:09.103Z,36.40
2018-04-06T13:33:36.261Z,36.80
2018-04-06T13:36:02.668Z,36.80
2018-04-06T13:38:29.097Z,38.10
2018-04-06T13:40:55.558Z,34.50
2018-04-06T13:43:22.699Z,36.20
2018-04-06T13:45:49.155Z,36.10
2018-04-06T13:48:16.304Z,35.40
2018-04-06T13:50:43.426Z,36.00
2018-04-06T13:53:09.790Z,36.00
2018-04-06T13:55:36.933Z,36.20
2018-04-06T13:58:04.138Z,38.00
2018-04-06T14:00:30.517Z,37.20
2018-04-06T14:02:57.635Z,35.70
2018-04-06T14:05:29.017Z,35.70
2018-04-06T14:07:56.226Z,36.00
2018-04-06T14:10:28.658Z,35.90
2018-04-06T14:12:55.049Z,37.90
2018-04-06T14:15:21.479Z,36.00
2018-04-06T14:17:47.937Z,35.50
2018-04-06T14:20:15.098Z,35.20
2018-04-06T14:22:50.706Z,35.30
2018-04-06T14:25:17.142Z,35.60
2018-04-06T14:27:43.498Z,37.10
2018-04-06T14:30:10.731Z,36.60
2018-04-06T14:32:37.121Z,36.60
2018-04-06T14:35:04.279Z,36.00
2018-04-06T14:37:30.667Z,36.00
2018-04-06T14:40:02.523Z,35.30
2018-04-06T14:42:28.912Z,35.20
2018-04-06T14:44:55.328Z,35.40
2018-04-06T14:47:22.490Z,37.50
2018-04-06T14:49:48.937Z,37.50
2018-04-06T14:52:15.314Z,36.80
2018-04-06T14:54:42.547Z,37.10
2018-04-06T14:57:08.941Z,37.10
2018-04-06T14:59:35.354Z,38.10
2018-04-06T15:02:02.531Z,36.80
2018-04-06T15:04:28.917Z,36.80
2018-04-06T15:06:55.310Z,36.90
2018-04-06T15:09:21.725Z,37.90
2018-04-06T15:11:48.127Z,38.10
2018-04-06T15:14:14.579Z,37.70
2018-04-06T15:16:41.063Z,36.90
2018-04-06T15:19:07.475Z,37.90
2018-04-06T15:21:33.902Z,37.90
2018-04-06T15:24:00.302Z,37.80
2018-04-06T15:26:26.717Z,38.30
2018-04-06T15:28:53.096Z,38.00
2018-04-06T15:31:19.495Z,37.30
2018-04-06T15:33:47.374Z,38.20
2018-04-06T15:36:14.514Z,38.80
2018-04-06T15:38:42.882Z,38.70
2018-04-06T15:41:13.180Z,38.80
2018-04-06T15:43:39.603Z,38.80
2018-04-06T15:46:06.466Z,39.00
2018-04-06T15:48:33.809Z,39.90
2018-04-06T15:51:02.251Z,39.80
2018-04-06T15:53:29.353Z,39.40
2018-04-06T15:56:01.520Z,39.30
2018-04-06T15:58:27.884Z,39.60
2018-04-06T16:00:54.326Z,39.80
2018-04-06T16:03:21.445Z,40.20
2018-04-06T16:05:47.887Z,40.10
2018-04-06T16:08:14.306Z,40.90
2018-04-06T16:10:40.722Z,40.50
2018-04-06T16:13:07.380Z,41.20
2018-04-06T16:15:33.876Z,40.80
2018-04-06T16:18:00.388Z,40.70
2018-04-06T16:20:27.568Z,41.60
2018-04-06T16:22:53.923Z,41.70
2018-04-06T16:25:20.338Z,42.30
2018-04-06T16:27:46.715Z,42.90
2018-04-06T16:30:13.105Z,42.70
2018-04-06T16:32:39.536Z,43.30
2018-04-06T16:35:05.943Z,42.90
2018-04-06T16:37:33.793Z,44.10
2018-04-06T16:40:18.718Z,43.90
2018-04-06T16:42:45.132Z,45.10
2018-04-06T16:45:12.273Z,43.90
2018-04-06T16:47:54.678Z,44.20
2018-04-06T16:50:21.822Z,44.20
2018-04-06T16:52:48.190Z,44.20
2018-04-06T16:55:19.631Z,44.40
2018-04-06T16:57:46.018Z,45.00
2018-04-06T17:00:14.437Z,45.20
2018-04-06T17:02:41.538Z,45.10
2018-04-06T17:05:07.932Z,45.10
2018-04-06T17:07:36.370Z,44.80
2018-04-06T17:10:03.524Z,45.90
2018-04-06T17:12:30.658Z,46.60
2018-04-06T17:14:57.030Z,46.00
2018-04-06T17:17:23.418Z,46.20
2018-04-06T17:19:49.866Z,46.80
2018-04-06T17:22:16.218Z,46.90
2018-04-06T17:24:42.628Z,47.30
2018-04-06T17:27:09.086Z,47.80
2018-04-06T17:29:36.209Z,48.50
2018-04-06T17:32:02.578Z,48.40
2018-04-06T17:34:29.006Z,48.90
2018-04-06T17:36:55.358Z,48.80
2018-04-06T17:39:22.463Z,49.60
2018-04-06T17:41:48.869Z,49.50
2018-04-06T17:44:15.230Z,49.50
2018-04-06T17:46:41.622Z,50.10
2018-04-06T17:49:08.043Z,50.30
2018-04-06T17:51:34.381Z,50.60
2018-04-06T17:54:00.732Z,50.70
2018-04-06T17:56:27.105Z,51.10
2018-04-06T17:58:54.943Z,51.70
2018-04-06T18:01:21.365Z,51.60
2018-04-06T18:03:47.726Z,51.90
2018-04-06T18:06:14.158Z,51.90
2018-04-06T18:08:40.509Z,52.90
2018-04-06T18:11:07.647Z,53.50
2018-04-06T18:13:34.046Z,53.40
2018-04-06T18:16:00.457Z,53.60
2018-04-06T18:18:26.811Z,54.00
2018-04-06T18:20:53.246Z,54.60
2018-04-06T18:23:19.626Z,54.60
2018-04-06T18:25:46.729Z,55.20
2018-04-06T18:28:13.099Z,55.20
2018-04-06T18:30:39.555Z,55.40
2018-04-06T18:33:05.910Z,55.70
2018-04-06T18:35:33.059Z,56.60
2018-04-06T18:37:59.457Z,55.90
2018-04-06T18:40:26.566Z,56.40
2018-04-06T18:42:52.914Z,56.40
2018-04-06T18:45:19.322Z,56.60
2018-04-06T18:47:45.746Z,56.70
2018-04-06T18:50:12.862Z,57.20
2018-04-06T18:52:39.241Z,57.20
2018-04-06T18:55:06.004Z,57.40
2018-04-06T18:57:33.700Z,57.70
2018-04-06T19:00:00.188Z,57.60
2018-04-06T19:02:26.600Z,57.90
2018-04-06T19:04:53.711Z,58.10
2018-04-06T19:07:20.208Z,58.10
2018-04-06T19:09:46.615Z,58.50
2018-04-06T19:12:13.010Z,58.70
2018-04-06T19:14:39.394Z,59.00
2018-04-06T19:17:05.794Z,59.20
2018-04-06T19:19:32.197Z,59.50
2018-04-06T19:21:58.573Z,60.00
2018-04-06T19:24:25.736Z,60.60
2018-04-06T19:26:52.842Z,61.10
2018-04-06T19:29:19.214Z,61.10
2018-04-06T19:31:45.573Z,61.20
2018-04-06T19:34:11.952Z,61.30
2018-04-06T19:36:38.337Z,61.50
2018-04-06T19:39:05.686Z,61.80
2018-04-06T19:41:32.054Z,62.00
2018-04-06T19:43:58.424Z,62.00
2018-04-06T19:46:24.832Z,62.20
2018-04-06T19:48:51.223Z,62.50
2018-04-06T19:51:17.609Z,62.60
2018-04-06T19:53:44.110Z,62.60
2018-04-06T19:56:10.496Z,62.90
2018-04-06T19:58:37.074Z,62.90
2018-04-06T20:01:03.486Z,63.20
2018-04-06T20:03:30.582Z,63.70
2018-04-06T20:05:56.958Z,63.70
2018-04-06T20:08:24.074Z,64.30
2018-04-06T20:10:50.470Z,64.40
2018-04-06T20:13:16.834Z,64.60
2018-04-06T20:15:43.274Z,64.90
2018-04-06T20:18:10.394Z,65.70
2018-04-06T20:20:36.845Z,65.70
2018-04-06T20:23:04.110Z,66.70
2018-04-06T20:25:30.486Z,66.70
2018-04-06T20:27:56.864Z,66.90
2018-04-06T20:30:23.221Z,67.40
2018-04-06T20:32:50.350Z,68.10
2018-04-06T20:35:16.704Z,68.10
2018-04-06T20:37:43.117Z,68.30
2018-04-06T20:40:09.557Z,68.50
2018-04-06T20:42:35.926Z,68.60
2018-04-06T20:45:04.031Z,68.40
2018-04-06T20:47:30.398Z,68.40
2018-04-06T20:49:56.755Z,68.40
2018-04-06T20:52:23.876Z,68.60
2018-04-06T20:54:50.217Z,68.60
2018-04-06T20:57:16.585Z,69.00
2018-04-06T20:59:45.757Z,70.30
2018-04-06T21:02:12.882Z,70.70
2018-04-06T21:04:39.233Z,70.60
2018-04-06T21:07:05.625Z,70.70
2018-04-06T21:09:31.995Z,71.00
2018-04-06T21:11:59.176Z,71.50
2018-04-06T21:14:25.576Z,71.50
2018-04-06T21:16:51.954Z,71.80
2018-04-06T21:19:18.320Z,72.00
2018-04-06T21:21:44.714Z,71.80
2018-04-06T21:24:11.802Z,71.40
2018-04-06T21:26:42.074Z,71.40
2018-04-06T21:29:08.470Z,71.40
2018-04-06T21:31:34.903Z,71.20
2018-04-06T21:34:01.233Z,70.90
2018-04-06T21:36:27.613Z,71.00
2018-04-06T21:38:54.702Z,71.00
2018-04-06T21:41:21.093Z,71.00
2018-04-06T21:43:48.169Z,70.50
2018-04-06T21:46:14.550Z,70.40
2018-04-06T21:48:40.910Z,70.10
2018-04-06T21:51:08.013Z,69.80
2018-04-06T21:53:35.112Z,69.40
2018-04-06T21:56:06.181Z,69.20
2018-04-06T21:58:32.536Z,69.10
2018-04-06T22:00:58.919Z,68.80
2018-04-06T22:03:25.306Z,69.00
2018-04-06T22:05:51.705Z,69.00
2018-04-06T22:08:18.094Z,69.10
2018-04-06T22:10:44.506Z,68.90
2018-04-06T22:13:10.895Z,69.10
2018-04-06T22:15:37.280Z,69.30
2018-04-06T22:18:03.687Z,69.60
2018-04-06T22:20:30.193Z,70.00
2018-04-06T22:22:56.584Z,70.40
2018-04-06T22:25:22.958Z,70.70
2018-04-06T22:27:49.364Z,70.70
2018-04-06T22:30:15.786Z,71.10
2018-04-06T22:32:42.270Z,71.20
2018-04-06T22:35:08.638Z,71.70
2018-04-06T22:37:35.009Z,71.90
2018-04-06T22:40:02.151Z,71.90
2018-04-06T22:42:29.997Z,71.60
2018-04-06T22:44:56.334Z,71.60
2018-04-06T22:47:22.707Z,71.20
2018-04-06T22:49:49.083Z,71.20
2018-04-06T22:52:15.486Z,71.20
2018-04-06T22:54:41.834Z,70.30
2018-04-06T22:57:08.213Z,69.70
2018-04-06T22:59:36.039Z,68.90
2018-04-06T23:02:02.410Z,68.90
2018-04-06T23:04:28.823Z,68.50
2018-04-06T23:06:55.198Z,67.90
2018-04-06T23:09:22.317Z,67.50
2018-04-06T23:11:48.700Z,67.50
2018-04-06T23:14:15.063Z,67.70
2018-04-06T23:16:41.516Z,67.60
2018-04-06T23:19:07.892Z,67.60
2018-04-06T23:21:34.305Z,67.60
2018-04-06T23:24:00.656Z,67.70
2018-04-06T23:26:27.762Z,67.60
2018-04-06T23:28:54.152Z,67.60
2018-04-06T23:31:20.517Z,68.00
2018-04-06T23:33:46.882Z,68.10
2018-04-06T23:36:13.261Z,68.40
2018-04-06T23:38:39.693Z,68.80
2018-04-06T23:41:06.069Z,68.90
2018-04-06T23:43:32.438Z,69.50
2018-04-06T23:45:58.828Z,69.80
2018-04-06T23:48:25.209Z,69.70
2018-04-06T23:50:51.636Z,69.60
2018-04-06T23:53:18.737Z,69.70
2018-04-06T23:55:45.154Z,69.60
2018-04-06T23:58:11.504Z,69.80
